Time;durP1;ratioP1;P1;durP2;ratioP2;P2;SDS_P1;SDS_P2;PMS_P1;PMS_P2;Temp;Humidity;BMP_temperature;BMP_pressure;BME280_temperature;BME280_humidity;BME280_pressure;Samples;Min_cycle;Max_cycle;Signal;HPM_P1;HPM_P2
2021/08/09 00:01:16;;;;;;;;;1.00;1.00;;;;;18.61;64.55;101342.84;5071910;28;54354;-69
2021/08/09 00:03:41;;;;;;;;;2.00;2.00;;;;;18.56;65.13;101348.47;5075082;27;45545;-68
2021/08/09 00:06:07;;;;;;;;;1.00;1.00;;;;;18.51;64.88;101340.78;5072481;27;45454;-68
2021/08/09 00:08:32;;;;;;;;;2.00;1.00;;;;;18.51;64.60;101345.25;5091132;27;45758;-68
2021/08/09 00:10:58;;;;;;;;;1.25;1.00;;;;;18.47;65.04;101351.72;5073613;27;45461;-68
2021/08/09 00:13:23;;;;;;;;;3.00;2.00;;;;;18.43;64.77;101350.25;5073565;28;46114;-68
2021/08/09 00:15:48;;;;;;;;;1.50;1.50;;;;;18.39;65.23;101349.59;5075998;27;45436;-68
2021/08/09 00:18:14;;;;;;;;;3.75;2.25;;;;;18.34;64.96;101351.69;5073730;28;45359;-68
2021/08/09 00:20:39;;;;;;;;;2.00;2.00;;;;;18.33;65.63;101346.50;5073711;28;45307;-68
2021/08/09 00:23:04;;;;;;;;;1.50;1.00;;;;;18.30;65.37;101344.00;5073367;27;45393;-68
2021/08/09 00:25:30;;;;;;;;;1.00;1.00;;;;;18.22;65.28;101331.22;5071990;27;45361;-68
2021/08/09 00:27:55;;;;;;;;;1.25;1.25;;;;;18.21;65.65;101329.50;5074780;28;45559;-68
2021/08/09 00:30:21;;;;;;;;;1.00;1.00;;;;;18.18;65.49;101329.72;5071575;27;54439;-68
2021/08/09 00:32:46;;;;;;;;;1.00;1.00;;;;;18.14;65.43;101329.06;5073193;28;45425;-68
2021/08/09 00:35:12;;;;;;;;;2.00;1.25;;;;;18.16;65.97;101329.78;5073676;27;45482;-68
2021/08/09 00:37:38;;;;;;;;;1.00;1.00;;;;;18.18;65.93;101333.22;5073570;28;45583;-68
2021/08/09 00:40:04;;;;;;;;;3.25;1.00;;;;;18.20;65.87;101333.97;5075174;27;45157;-68
2021/08/09 00:42:29;;;;;;;;;1.00;1.00;;;;;18.20;66.53;101331.31;5072911;27;46800;-68
2021/08/09 00:44:54;;;;;;;;;2.00;1.00;;;;;18.23;66.44;101340.91;5090733;27;45750;-68
2021/08/09 00:47:20;;;;;;;;;1.00;1.00;;;;;18.20;66.41;101333.97;5073233;27;45275;-69
2021/08/09 00:49:45;;;;;;;;;5.00;1.00;;;;;18.21;66.41;101340.13;5072984;27;51499;-68
2021/08/09 00:52:10;;;;;;;;;1.50;1.00;;;;;18.19;66.21;101345.56;5074642;27;45410;-68
2021/08/09 00:54:37;;;;;;;;;2.75;1.75;;;;;18.17;66.34;101339.50;5072898;27;45441;-68
2021/08/09 00:57:03;;;;;;;;;3.25;2.50;;;;;18.14;66.40;101336.19;5073282;27;45377;-68
2021/08/09 00:59:29;;;;;;;;;2.00;0.25;;;;;18.00;66.36;101319.28;5076681;27;45406;-68
2021/08/09 01:01:55;;;;;;;;;3.50;2.00;;;;;17.99;66.34;101314.94;5076639;27;45452;-69
2021/08/09 01:04:20;;;;;;;;;2.50;1.50;;;;;18.04;66.32;101322.63;5077564;27;45563;-68
2021/08/09 01:06:47;;;;;;;;;2.00;1.00;;;;;18.01;66.60;101336.13;5076839;28;45478;-69
2021/08/09 01:09:23;;;;;;;;;1.00;1.00;;;;;18.02;66.63;101321.03;5072018;28;45533;-68
2021/08/09 01:12:04;;;;;;;;;2.00;1.00;;;;;18.00;66.50;101329.09;5076720;27;45372;-68
2021/08/09 01:15:00;;;;;;;;;2.00;2.00;;;;;17.98;66.43;101315.03;5076454;27;45405;-68
2021/08/09 01:17:32;;;;;;;;;1.50;1.00;;;;;17.95;66.79;101317.88;5077138;28;45538;-69
2021/08/09 01:20:47;;;;;;;;;2.00;1.00;;;;;17.98;66.83;101315.03;5076666;27;45389;-68
2021/08/09 01:23:25;;;;;;;;;2.00;2.00;;;;;17.95;66.56;101320.53;5002731;28;46450;-68
2021/08/09 01:25:56;;;;;;;;;4.00;1.00;;;;;17.89;66.45;101311.16;5013344;28;45471;-68
2021/08/09 01:28:25;;;;;;;;;1.25;1.00;;;;;17.87;66.64;101304.25;5014318;28;45413;-68
2021/08/09 01:30:55;;;;;;;;;1.00;1.00;;;;;17.82;66.58;101307.19;5016267;28;45527;-68
2021/08/09 01:33:22;;;;;;;;;1.00;1.00;;;;;17.79;66.84;101323.34;5013824;28;46206;-68
2021/08/09 01:35:50;;;;;;;;;1.50;1.50;;;;;17.75;67.12;101319.19;5013823;28;45528;-68
2021/08/09 01:38:16;;;;;;;;;2.00;1.00;;;;;17.72;66.84;101317.56;5013569;28;45533;-68
2021/08/09 01:40:44;;;;;;;;;2.00;1.75;;;;;17.68;67.22;101321.31;5013502;28;45334;-68
2021/08/09 01:43:10;;;;;;;;;2.00;1.00;;;;;17.65;67.29;101320.69;4984650;28;47084;-68
2021/08/09 01:45:37;;;;;;;;;2.00;2.00;;;;;17.63;67.28;101315.44;5012929;28;45673;-68
2021/08/09 01:48:03;;;;;;;;;2.50;2.25;;;;;17.65;67.78;101312.72;5013581;28;45447;-68
2021/08/09 01:50:28;;;;;;;;;4.00;1.25;;;;;17.65;67.38;101320.69;5013736;28;45425;-68
2021/08/09 01:52:54;;;;;;;;;3.75;1.00;;;;;17.64;67.09;101322.47;4997680;28;47553;-68
2021/08/09 01:55:20;;;;;;;;;2.25;2.25;;;;;17.65;67.45;101329.53;5013791;28;45708;-68
2021/08/09 01:57:46;;;;;;;;;1.50;0.50;;;;;17.64;67.78;101335.75;5023183;28;45492;-68
2021/08/09 02:00:17;;;;;;;;;1.50;1.00;;;;;17.61;67.53;101333.31;5073343;27;45555;-68
2021/08/09 02:02:44;;;;;;;;;1.75;1.50;;;;;17.58;67.62;101329.97;5074368;27;46193;-68
2021/08/09 02:05:12;;;;;;;;;3.00;2.00;;;;;17.56;67.52;101316.81;5076110;27;45699;-68
2021/08/09 02:07:41;;;;;;;;;3.00;1.50;;;;;17.53;67.76;101316.97;5075606;28;45425;-68
2021/08/09 02:10:08;;;;;;;;;1.50;1.50;;;;;17.51;67.82;101316.22;5077001;27;45451;-68
2021/08/09 02:12:44;;;;;;;;;2.00;2.00;;;;;17.51;68.00;101318.88;5076109;27;46446;-68
2021/08/09 02:15:11;;;;;;;;;1.50;1.50;;;;;17.27;68.12;101283.22;5075522;27;45641;-68
2021/08/09 02:17:44;;;;;;;;;2.50;1.25;;;;;17.46;67.53;101323.63;5075598;28;45369;-68
2021/08/09 02:20:23;;;;;;;;;2.00;1.50;;;;;17.41;67.94;101315.94;5075550;27;45414;-68
2021/08/09 02:22:55;;;;;;;;;1.00;1.00;;;;;17.38;67.92;101321.47;5073809;27;45614;-68
2021/08/09 02:25:24;;;;;;;;;4.00;1.00;;;;;17.34;68.02;101319.94;5084142;27;45384;-68
2021/08/09 02:27:54;;;;;;;;;1.00;1.00;;;;;17.34;68.27;101327.06;5088607;27;45676;-68
2021/08/09 02:30:22;;;;;;;;;3.25;1.00;;;;;17.32;68.08;101323.63;5076894;27;45595;-68
2021/08/09 02:32:50;;;;;;;;;2.00;1.00;;;;;17.27;68.17;101318.59;5075247;27;46642;-68
2021/08/09 02:35:19;;;;;;;;;0.50;0.50;;;;;17.26;68.66;101324.03;5074904;28;45669;-68
2021/08/09 02:37:46;;;;;;;;;4.25;2.00;;;;;17.24;68.29;101323.28;5075921;28;45590;-68
2021/08/09 02:40:12;;;;;;;;;2.00;1.00;;;;;17.20;68.17;101323.44;5076839;27;45541;-68
2021/08/09 02:42:38;;;;;;;;;1.00;1.00;;;;;17.18;68.48;101317.38;5074239;27;48831;-68
2021/08/09 02:45:05;;;;;;;;;0.75;0.75;;;;;17.15;68.67;101309.59;5075114;28;45361;-68
2021/08/09 02:47:37;;;;;;;;;2.00;1.00;;;;;17.13;69.03;101319.47;5075564;27;45628;-68
2021/08/09 02:50:04;;;;;;;;;3.00;3.00;;;;;17.10;68.80;101316.13;5074647;27;45249;-68
2021/08/09 02:52:31;;;;;;;;;2.00;2.00;;;;;17.08;69.23;101316.25;5074956;27;45660;-68
2021/08/09 02:54:57;;;;;;;;;2.00;1.00;;;;;17.03;68.87;101326.28;5076615;27;45508;-68
2021/08/09 02:57:26;;;;;;;;;1.00;1.00;;;;;17.01;69.63;101327.31;5075435;27;45639;-68
2021/08/09 02:59:51;;;;;;;;;1.25;1.25;;;;;16.97;69.75;101328.47;5075024;27;45529;-68
2021/08/09 03:02:18;;;;;;;;;2.25;2.25;;;;;16.94;69.61;101319.72;5073212;27;45368;-68
2021/08/09 03:04:45;;;;;;;;;0.75;0.75;;;;;16.92;69.79;101324.28;5073069;27;45631;-68
2021/08/09 03:07:11;;;;;;;;;1.75;1.00;;;;;16.88;70.01;101329.84;5075499;28;45419;-68
2021/08/09 03:09:37;;;;;;;;;2.50;1.25;;;;;16.87;70.12;101334.31;5075512;27;45504;-68
2021/08/09 03:12:05;;;;;;;;;2.50;2.00;;;;;16.84;70.23;101323.88;5074573;27;46276;-68
2021/08/09 03:14:31;;;;;;;;;1.00;1.00;;;;;16.83;70.22;101330.13;5074473;27;45457;-68
2021/08/09 03:17:00;;;;;;;;;3.00;2.00;;;;;16.80;69.71;101327.66;5075211;27;45438;-68
2021/08/09 03:19:25;;;;;;;;;2.50;2.50;;;;;16.77;70.09;101330.50;5075019;27;45309;-68
2021/08/09 03:21:53;;;;;;;;;1.50;1.00;;;;;16.75;70.38;101337.69;5074742;28;46496;-68
2021/08/09 03:24:19;;;;;;;;;2.25;1.00;;;;;16.72;70.39;101331.72;5074057;27;45670;-68
2021/08/09 03:26:45;;;;;;;;;1.75;1.00;;;;;16.68;70.86;101326.53;5074232;27;45516;-68
2021/08/09 03:29:11;;;;;;;;;0.75;0.75;;;;;16.65;70.28;101333.81;5074335;27;45476;-69
2021/08/09 03:31:37;;;;;;;;;2.00;2.00;;;;;16.50;70.90;101314.38;5074599;27;45408;-68
2021/08/09 03:34:02;;;;;;;;;2.75;2.00;;;;;16.58;70.99;101327.19;5076276;27;45677;-68
2021/08/09 03:36:27;;;;;;;;;1.75;1.00;;;;;16.57;70.66;101325.47;5074521;27;45476;-68
2021/08/09 03:38:53;;;;;;;;;3.75;3.00;;;;;16.50;71.14;101329.44;5074344;27;45381;-68
2021/08/09 03:41:18;;;;;;;;;3.00;3.00;;;;;16.49;70.92;101339.16;5074586;28;47284;-68
2021/08/09 03:43:43;;;;;;;;;2.00;1.25;;;;;16.47;71.15;101337.56;5072456;28;57195;-68
2021/08/09 03:46:10;;;;;;;;;1.00;1.00;;;;;16.44;71.59;101344.78;5075563;28;55359;-68
2021/08/09 03:48:35;;;;;;;;;1.00;1.00;;;;;16.42;70.78;101348.44;5090773;27;45428;-68
2021/08/09 03:51:00;;;;;;;;;4.00;0.25;;;;;16.40;71.70;101348.53;5073569;28;57600;-68
2021/08/09 03:53:26;;;;;;;;;2.00;2.00;;;;;16.38;72.00;101345.09;5074038;27;45438;-68
2021/08/09 03:55:51;;;;;;;;;3.75;3.00;;;;;16.35;72.08;101337.34;5074294;28;45391;-68
2021/08/09 03:58:16;;;;;;;;;2.50;2.50;;;;;16.36;72.10;101340.84;5075197;27;45399;-68
2021/08/09 04:00:41;;;;;;;;;4.25;1.50;;;;;16.34;72.17;101334.75;5073695;27;45638;-68
2021/08/09 04:03:07;;;;;;;;;2.00;2.00;;;;;16.31;71.89;101335.81;5073050;28;49601;-68
2021/08/09 04:05:32;;;;;;;;;1.00;1.00;;;;;16.31;72.00;101341.09;5074017;27;45654;-68
2021/08/09 04:07:57;;;;;;;;;2.00;2.00;;;;;16.30;72.48;101333.25;5070779;28;45533;-68
2021/08/09 04:10:23;;;;;;;;;3.00;2.00;;;;;16.27;71.89;101338.72;5071898;28;64396;-68
2021/08/09 04:12:48;;;;;;;;;3.75;3.00;;;;;16.26;72.56;101337.84;5075860;28;45305;-68
2021/08/09 04:15:14;;;;;;;;;2.75;1.75;;;;;16.27;72.43;101341.38;5073897;28;45604;-68
2021/08/09 04:17:39;;;;;;;;;2.00;2.00;;;;;16.28;72.14;101341.25;5090599;27;45462;-68
2021/08/09 04:20:05;;;;;;;;;3.75;2.00;;;;;16.30;72.22;101347.34;5073734;28;46382;-68
2021/08/09 04:22:30;;;;;;;;;2.50;2.50;;;;;16.28;72.15;101343.06;5073309;28;45341;-68
2021/08/09 04:24:56;;;;;;;;;3.25;2.00;;;;;16.25;72.41;101354.72;5073947;28;45371;-68
2021/08/09 04:27:21;;;;;;;;;4.00;3.00;;;;;16.23;72.34;101358.38;5073733;27;45451;-68
2021/08/09 04:29:46;;;;;;;;;3.00;2.25;;;;;16.22;72.39;101359.34;5073270;27;55109;-68
2021/08/09 04:32:16;;;;;;;;;2.75;2.75;;;;;16.19;72.24;101368.34;5072461;27;45333;-68
2021/08/09 04:34:42;;;;;;;;;3.00;3.00;;;;;16.18;72.53;101371.91;5073840;28;45412;-68
2021/08/09 04:37:08;;;;;;;;;3.00;2.00;;;;;16.15;72.71;101367.63;5075801;27;45311;-68
2021/08/09 04:39:33;;;;;;;;;2.25;2.25;;;;;16.17;72.74;101375.50;5072156;27;46422;-68
2021/08/09 04:41:59;;;;;;;;;3.75;1.50;;;;;16.18;73.02;101377.19;5073121;27;45568;-68
2021/08/09 04:44:24;;;;;;;;;3.00;2.00;;;;;16.20;72.88;101379.78;5073222;27;52175;-68
2021/08/09 04:46:49;;;;;;;;;3.25;2.00;;;;;16.20;72.68;101380.66;5073010;28;45944;-68
2021/08/09 04:49:14;;;;;;;;;1.75;1.75;;;;;16.22;72.70;101381.41;5073561;28;62343;-68
2021/08/09 04:51:40;;;;;;;;;5.75;3.25;;;;;16.24;72.66;101387.50;5073758;27;52012;-68
2021/08/09 04:54:05;;;;;;;;;1.25;1.25;;;;;16.23;73.04;101375.16;5072555;28;49733;-68
2021/08/09 04:56:30;;;;;;;;;2.75;2.75;;;;;16.26;72.87;101380.28;5073148;28;50592;-68
2021/08/09 04:58:55;;;;;;;;;5.25;4.25;;;;;16.26;72.60;101385.59;5071345;27;45852;-68
2021/08/09 05:01:21;;;;;;;;;3.25;3.25;;;;;16.27;72.93;101384.66;5072114;28;49092;-69
2021/08/09 05:03:46;;;;;;;;;2.50;2.50;;;;;16.26;73.16;101382.09;5073030;27;45366;-68
2021/08/09 05:06:12;;;;;;;;;3.75;3.75;;;;;16.28;72.88;101383.69;5073003;28;45492;-68
2021/08/09 05:08:38;;;;;;;;;6.25;4.00;;;;;16.32;73.21;101384.41;5072928;28;45459;-68
2021/08/09 05:11:03;;;;;;;;;4.00;2.00;;;;;16.38;73.34;101390.19;5073068;27;45518;-68
2021/08/09 05:13:28;;;;;;;;;4.50;2.75;;;;;16.42;72.99;101378.47;5073245;27;45508;-68
2021/08/09 05:15:54;;;;;;;;;2.00;2.00;;;;;16.46;72.69;101384.47;5074664;27;45448;-68
2021/08/09 05:18:19;;;;;;;;;3.25;2.00;;;;;16.48;73.00;101382.56;5071448;27;46479;-68
2021/08/09 05:20:46;;;;;;;;;5.00;2.75;;;;;16.53;72.97;101379.66;5073143;27;45478;-68
2021/08/09 05:23:13;;;;;;;;;4.00;2.25;;;;;16.52;72.50;101389.41;5072900;28;45652;-68
2021/08/09 05:25:39;;;;;;;;;4.00;2.00;;;;;16.51;72.77;101390.38;5072756;27;45361;-68
2021/08/09 05:28:04;;;;;;;;;3.00;3.00;;;;;16.47;72.45;101393.28;5074929;27;45355;-68
2021/08/09 05:30:30;;;;;;;;;3.00;3.00;;;;;16.48;72.66;101405.59;5072431;28;45270;-68
2021/08/09 05:32:55;;;;;;;;;4.00;2.25;;;;;16.51;72.95;101398.34;5089767;27;45393;-68
2021/08/09 05:35:21;;;;;;;;;3.50;2.00;;;;;16.56;72.81;101387.47;5072890;28;45322;-68
2021/08/09 05:37:46;;;;;;;;;4.25;2.00;;;;;16.62;72.54;101392.41;5071090;27;46067;-68
2021/08/09 05:40:12;;;;;;;;;4.00;3.00;;;;;16.66;71.94;101391.28;5073593;27;47520;-68
2021/08/09 05:42:37;;;;;;;;;3.50;3.00;;;;;16.72;72.22;101395.41;5072378;28;45547;-68
2021/08/09 05:45:05;;;;;;;;;7.75;3.50;;;;;16.78;72.28;101387.94;5068920;28;45602;-68
2021/08/09 05:47:30;;;;;;;;;2.00;2.00;;;;;16.89;72.08;101396.13;5075869;28;46736;-68
2021/08/09 05:49:56;;;;;;;;;2.50;2.50;;;;;16.98;71.76;101392.09;5075860;28;45333;-68
2021/08/09 05:52:23;;;;;;;;;3.25;1.25;;;;;17.12;71.95;101393.91;5075185;28;45391;-68
2021/08/09 05:54:49;;;;;;;;;1.75;1.50;;;;;17.28;71.32;101394.72;5076202;28;45358;-68
2021/08/09 05:57:15;;;;;;;;;7.75;3.25;;;;;17.41;71.28;101397.47;5074474;27;46345;-68
2021/08/09 05:59:40;;;;;;;;;1.75;1.75;;;;;17.45;70.89;101407.81;5075425;28;45716;-68
2021/08/09 06:02:05;;;;;;;;;2.50;1.75;;;;;17.52;70.94;101405.63;5075893;28;47722;-68
2021/08/09 06:04:31;;;;;;;;;3.00;3.00;;;;;17.56;70.21;101408.97;5075873;27;45326;-68
2021/08/09 06:06:57;;;;;;;;;2.50;2.50;;;;;17.51;70.83;101403.09;5077839;27;46308;-68
2021/08/09 06:09:22;;;;;;;;;2.00;1.50;;;;;17.52;70.78;101399.47;5085736;27;45417;-68
2021/08/09 06:11:47;;;;;;;;;4.00;2.00;;;;;17.57;70.32;101406.22;5081620;27;45367;-68
2021/08/09 06:14:13;;;;;;;;;3.75;2.00;;;;;17.62;70.77;101401.47;5075662;27;45396;-68
2021/08/09 06:16:38;;;;;;;;;4.00;2.00;;;;;17.68;70.60;101406.41;5074061;28;47196;-68
2021/08/09 06:19:03;;;;;;;;;1.00;1.00;;;;;17.78;70.38;101411.19;5076358;27;45528;-68
2021/08/09 06:21:29;;;;;;;;;4.00;3.00;;;;;17.83;70.24;101409.09;5073674;28;52490;-68
2021/08/09 06:23:54;;;;;;;;;3.75;3.00;;;;;17.91;70.41;101412.13;5075693;27;45484;-68
2021/08/09 06:26:19;;;;;;;;;3.75;1.00;;;;;17.98;69.68;101421.44;5075491;28;45474;-68
2021/08/09 06:28:44;;;;;;;;;3.50;2.00;;;;;18.06;69.90;101424.44;5074876;28;45390;-68
2021/08/09 06:31:10;;;;;;;;;4.25;2.00;;;;;18.15;69.60;101417.69;5076807;28;45360;-68
2021/08/09 06:33:35;;;;;;;;;4.00;2.25;;;;;18.25;69.47;101422.31;5076003;27;45542;-68
2021/08/09 06:36:00;;;;;;;;;4.75;3.00;;;;;18.30;69.39;101423.84;5073868;27;46432;-68
2021/08/09 06:38:26;;;;;;;;;3.75;3.00;;;;;18.33;68.91;101429.81;5073958;27;45338;-68
2021/08/09 06:40:51;;;;;;;;;5.75;3.00;;;;;18.30;69.33;101427.34;5075353;27;49229;-68
2021/08/09 06:43:16;;;;;;;;;2.00;2.00;;;;;18.24;69.02;101420.63;5075923;27;45428;-68
2021/08/09 06:45:43;;;;;;;;;2.00;2.00;;;;;18.16;69.45;101419.38;5075749;28;48594;-68
2021/08/09 06:48:11;;;;;;;;;3.25;2.00;;;;;18.20;69.49;101428.88;5074975;27;45771;-68
2021/08/09 06:50:37;;;;;;;;;3.75;2.50;;;;;18.18;69.41;101430.81;5075613;28;45389;-68
2021/08/09 06:53:03;;;;;;;;;4.50;3.50;;;;;18.16;69.93;101438.00;5075157;27;45288;-68
2021/08/09 06:55:29;;;;;;;;;6.00;4.00;;;;;18.12;69.47;101436.53;5074539;27;45629;-68
2021/08/09 06:57:54;;;;;;;;;2.50;2.00;;;;;18.08;70.07;101440.31;5075263;28;45519;-68
2021/08/09 07:00:19;;;;;;;;;4.50;3.25;;;;;18.05;69.91;101436.03;5073636;27;45540;-70
2021/08/09 07:02:45;;;;;;;;;2.00;2.00;;;;;18.03;70.86;101450.41;5074704;27;45553;-69
2021/08/09 07:05:10;;;;;;;;;5.00;3.00;;;;;18.07;70.76;101438.63;5074108;28;46564;-69
2021/08/09 07:07:38;;;;;;;;;6.00;2.75;;;;;18.13;70.39;101438.22;5075802;27;45472;-68
2021/08/09 07:10:03;;;;;;;;;3.50;3.00;;;;;18.15;70.79;101446.94;5073017;28;45402;-68
2021/08/09 07:12:28;;;;;;;;;2.00;2.00;;;;;18.10;70.29;101444.56;5074321;28;45353;-68
2021/08/09 07:14:54;;;;;;;;;3.00;2.00;;;;;18.06;71.06;101439.53;5072453;27;56765;-69
2021/08/09 07:17:19;;;;;;;;;5.50;2.50;;;;;18.08;70.89;101445.63;5073594;28;45528;-69
2021/08/09 07:19:44;;;;;;;;;4.00;3.50;;;;;18.09;71.48;101444.69;5073379;28;48373;-68
2021/08/09 07:22:11;;;;;;;;;4.25;3.00;;;;;18.12;72.02;101439.19;5076372;28;45537;-69
2021/08/09 07:24:37;;;;;;;;;4.00;2.75;;;;;18.12;71.98;101439.19;5074938;28;46522;-68
2021/08/09 07:27:03;;;;;;;;;4.00;2.00;;;;;18.19;71.61;101443.16;5073873;27;45566;-68
2021/08/09 07:29:29;;;;;;;;;4.00;4.00;;;;;18.18;71.74;101442.31;5074586;27;45476;-68
2021/08/09 07:31:55;;;;;;;;;6.25;3.75;;;;;18.26;71.91;101439.97;5074557;27;45320;-68
2021/08/09 07:34:20;;;;;;;;;4.00;4.00;;;;;18.35;72.18;101441.22;5075327;27;45809;-69
2021/08/09 07:36:45;;;;;;;;;4.00;3.00;;;;;18.49;71.45;101443.84;5073265;27;45414;-68
2021/08/09 07:39:11;;;;;;;;;5.00;4.75;;;;;18.70;71.34;101446.09;5073698;27;45758;-68
2021/08/09 07:41:36;;;;;;;;;3.00;3.00;;;;;18.99;71.46;101445.00;5073405;27;45342;-69
2021/08/09 07:44:01;;;;;;;;;6.00;4.00;;;;;19.34;70.88;101449.75;5070905;28;46170;-69
2021/08/09 07:46:27;;;;;;;;;6.00;3.25;;;;;19.57;70.34;101445.50;5072235;28;45448;-69
2021/08/09 07:48:53;;;;;;;;;4.00;3.25;;;;;19.76;69.38;101435.28;5076212;27;45429;-69
2021/08/09 07:51:19;;;;;;;;;6.75;4.00;;;;;20.00;69.49;101438.06;5073442;27;45499;-69
2021/08/09 07:53:44;;;;;;;;;5.00;4.25;;;;;20.30;68.10;101442.13;5072453;27;46388;-69
2021/08/09 07:56:09;;;;;;;;;8.50;3.75;;;;;20.42;68.02;101445.75;5072999;27;52721;-69
2021/08/09 07:58:35;;;;;;;;;3.25;2.50;;;;;20.58;67.36;101449.00;5073902;28;45398;-69
2021/08/09 08:01:00;;;;;;;;;3.00;2.50;;;;;20.67;66.71;101455.47;5076183;27;45316;-68
2021/08/09 08:03:25;;;;;;;;;7.00;3.50;;;;;20.75;66.84;101448.59;5068478;28;47147;-69
2021/08/09 08:05:51;;;;;;;;;1.75;1.75;;;;;20.81;66.45;101444.63;5073382;28;45665;-69
2021/08/09 08:08:16;;;;;;;;;2.50;2.50;;;;;20.89;66.16;101446.75;5071238;28;45360;-69
2021/08/09 08:10:42;;;;;;;;;3.75;2.25;;;;;20.93;65.78;101454.38;5072540;27;45261;-69
2021/08/09 08:13:08;;;;;;;;;4.00;2.75;;;;;20.80;65.18;101458.97;5074556;27;45493;-69
2021/08/09 08:15:33;;;;;;;;;3.75;2.75;;;;;20.51;65.74;101464.63;5074630;27;45467;-69
2021/08/09 08:17:58;;;;;;;;;5.75;4.25;;;;;20.33;66.55;101456.09;5089362;27;45634;-69
2021/08/09 08:20:24;;;;;;;;;3.50;2.00;;;;;20.27;66.22;101464.56;5073243;27;45365;-69
2021/08/09 08:22:49;;;;;;;;;3.50;3.50;;;;;20.17;66.97;101463.53;5073559;27;45408;-69
2021/08/09 08:25:14;;;;;;;;;3.50;3.00;;;;;20.06;66.95;101458.94;5073544;27;48473;-70
2021/08/09 08:27:40;;;;;;;;;5.25;4.25;;;;;19.93;66.64;101457.25;5071638;28;45787;-69
2021/08/09 08:30:06;;;;;;;;;5.00;4.25;;;;;19.86;67.62;101451.50;5073873;28;45496;-69
2021/08/09 08:32:33;;;;;;;;;3.25;3.25;;;;;19.94;67.39;101465.16;5071838;27;45611;-69
2021/08/09 08:35:00;;;;;;;;;2.50;2.50;;;;;19.95;67.57;101453.53;5071833;27;45428;-69
2021/08/09 08:37:25;;;;;;;;;5.75;4.00;;;;;19.92;67.42;101463.56;5070005;27;46573;-70
2021/08/09 08:39:51;;;;;;;;;2.50;2.50;;;;;19.83;67.21;101462.38;5075611;28;45553;-69
2021/08/09 08:42:18;;;;;;;;;5.50;4.75;;;;;19.89;67.70;101467.31;5071202;27;57397;-69
2021/08/09 08:44:45;;;;;;;;;5.00;4.00;;;;;20.14;68.04;101468.22;5071772;27;45417;-69
2021/08/09 08:47:19;;;;;;;;;4.50;4.50;;;;;20.48;66.89;101466.69;5071627;27;45574;-69
2021/08/09 08:49:44;;;;;;;;;5.50;3.75;;;;;20.79;66.58;101466.13;5071696;27;45504;-69
2021/08/09 08:52:10;;;;;;;;;5.75;3.75;;;;;21.44;67.02;101459.44;5074260;28;46134;-69
2021/08/09 08:54:39;;;;;;;;;7.75;5.00;;;;;22.50;65.63;101465.31;5058215;28;45701;-69
2021/08/09 08:57:04;;;;;;;;;4.25;4.00;;;;;23.44;62.90;101461.06;5067073;28;45556;-69
2021/08/09 08:59:30;;;;;;;;;2.50;2.00;;;;;24.33;61.64;101454.13;5072822;27;45510;-69
2021/08/09 09:01:56;;;;;;;;;4.25;2.75;;;;;25.45;60.11;101468.91;5072570;28;46467;-69
2021/08/09 09:04:27;;;;;;;;;5.75;3.00;;;;;27.69;56.70;101474.63;5072817;28;45559;-69
2021/08/09 09:07:03;;;;;;;;;3.00;3.00;;;;;27.89;53.38;101471.72;5073483;28;46040;-69
2021/08/09 09:09:33;;;;;;;;;2.75;2.50;;;;;27.48;52.09;101474.16;5072866;27;45580;-71
2021/08/09 09:12:12;;;;;;;;;4.00;2.50;;;;;27.69;52.19;101489.97;5071006;27;46624;-69
2021/08/09 09:14:37;;;;;;;;;4.50;3.00;;;;;29.49;51.94;101478.66;5074202;27;45326;-70
2021/08/09 09:17:02;;;;;;;;;3.50;3.00;;;;;29.58;48.31;101485.78;5073990;27;45506;-69
2021/08/09 09:19:37;;;;;;;;;2.00;2.00;;;;;29.63;48.32;101490.69;5074600;27;45479;-69
2021/08/09 09:22:23;;;;;;;;;4.00;2.00;;;;;29.12;48.10;101496.28;5077734;27;45533;-69
2021/08/09 09:24:54;;;;;;;;;2.00;2.00;;;;;28.31;48.66;101504.19;5076048;28;45583;-70
2021/08/09 09:27:33;;;;;;;;;7.00;3.75;;;;;28.18;48.81;101510.00;5078160;27;45401;-70
2021/08/09 09:30:00;;;;;;;;;3.50;2.00;;;;;28.66;48.51;101503.16;5080720;27;45519;-70
2021/08/09 09:32:26;;;;;;;;;2.75;2.00;;;;;29.01;46.92;101507.44;5074247;27;46300;-69
2021/08/09 09:34:56;;;;;;;;;4.25;4.25;;;;;29.13;46.94;101510.69;5076652;27;45672;-70
2021/08/09 09:37:30;;;;;;;;;4.00;3.00;;;;;29.21;46.88;101505.25;5075786;28;45398;-70
2021/08/09 09:40:07;;;;;;;;;3.00;3.00;;;;;28.67;47.14;101504.81;5076939;27;45345;-69
2021/08/09 09:42:38;;;;;;;;;3.00;2.00;;;;;28.35;47.17;101502.88;5075598;28;47170;-70
2021/08/09 09:45:27;;;;;;;;;3.50;2.50;;;;;28.69;47.63;101505.50;5075827;27;45704;-70
2021/08/09 09:48:05;;;;;;;;;3.00;3.00;;;;;29.41;46.26;101496.78;5075608;28;45413;-70
2021/08/09 09:50:32;;;;;;;;;5.25;2.50;;;;;29.51;46.45;101497.47;5074054;27;45334;-70
2021/08/09 09:52:58;;;;;;;;;1.50;0.75;;;;;29.48;46.99;101500.50;5092310;27;47590;-69
2021/08/09 09:55:23;;;;;;;;;6.50;2.00;;;;;28.99;45.50;101503.22;5073547;27;45751;-69
2021/08/09 09:57:49;;;;;;;;;4.50;3.50;;;;;28.65;46.43;101508.69;5077250;27;45574;-69
2021/08/09 10:00:17;;;;;;;;;4.50;3.00;;;;;28.82;46.68;101508.59;5075411;27;45561;-69
2021/08/09 10:02:44;;;;;;;;;3.75;3.25;;;;;29.12;45.17;101509.81;5075507;27;45389;-69
2021/08/09 10:05:11;;;;;;;;;2.00;2.00;;;;;29.67;46.76;101502.88;5075458;27;45469;-70
2021/08/09 10:07:38;;;;;;;;;4.50;4.50;;;;;30.20;45.13;101505.97;5059828;28;45396;-70
2021/08/09 10:10:06;;;;;;;;;2.25;2.25;;;;;30.52;42.91;101504.97;5073092;28;45329;-70
2021/08/09 10:12:33;;;;;;;;;2.50;2.00;;;;;30.62;43.04;101511.00;5073232;27;46561;-70
2021/08/09 10:14:59;;;;;;;;;4.25;1.25;;;;;30.41;43.84;101504.34;5074786;28;45666;-70
2021/08/09 10:17:30;;;;;;;;;2.00;2.00;;;;;30.00;43.09;101509.06;5075397;27;45311;-70
2021/08/09 10:20:01;;;;;;;;;2.75;2.50;;;;;29.05;43.84;101519.63;5075489;28;45461;-70
2021/08/09 10:22:27;;;;;;;;;5.50;3.00;;;;;28.40;44.57;101507.75;5075354;27;46342;-69
2021/08/09 10:24:54;;;;;;;;;1.25;1.25;;;;;27.72;45.26;101516.69;5076242;27;45513;-70
2021/08/09 10:27:51;;;;;;;;;2.00;2.00;;;;;27.29;45.62;101521.06;5075783;27;45396;-70
2021/08/09 10:30:23;;;;;;;;;4.75;3.50;;;;;26.94;46.97;101519.19;5062155;28;45292;-70
2021/08/09 10:32:55;;;;;;;;;4.25;3.25;;;;;27.21;47.92;101515.59;5074866;28;45673;-70
2021/08/09 10:35:40;;;;;;;;;3.25;3.00;;;;;27.30;46.25;101506.56;5074337;27;45764;-69
2021/08/09 10:38:32;;;;;;;;;3.00;3.00;;;;;27.60;48.07;101507.13;5071645;28;45403;-70
2021/08/09 10:41:00;;;;;;;;;3.00;3.00;;;;;27.83;46.50;101497.53;5070293;27;45521;-69
2021/08/09 10:43:26;;;;;;;;;3.50;3.25;;;;;27.87;45.39;101501.56;5074177;28;46583;-70
2021/08/09 10:45:52;;;;;;;;;2.25;2.25;;;;;27.43;45.47;101504.31;5076717;27;45414;-70
2021/08/09 10:48:42;;;;;;;;;4.25;2.00;;;;;27.01;46.94;101517.56;5074030;28;45467;-69
2021/08/09 10:51:08;;;;;;;;;5.00;3.00;;;;;26.78;47.24;101503.69;5072921;28;45536;-70
2021/08/09 10:53:33;;;;;;;;;2.00;2.00;;;;;26.97;47.35;101498.16;5074353;27;45433;-70
2021/08/09 10:55:59;;;;;;;;;2.00;2.00;;;;;27.19;46.75;101499.53;5073953;27;45424;-70
2021/08/09 10:58:43;;;;;;;;;2.50;2.25;;;;;27.43;46.30;101503.47;5074932;27;45337;-70
2021/08/09 11:01:12;;;;;;;;;2.75;2.00;;;;;27.45;46.30;101504.13;5087539;27;45470;-69
2021/08/09 11:04:02;;;;;;;;;4.75;3.00;;;;;27.06;46.19;101507.16;5075059;27;46785;-71
2021/08/09 11:06:53;;;;;;;;;1.00;0.75;;;;;26.64;46.47;101505.06;5080368;27;45618;-72
2021/08/09 11:09:35;;;;;;;;;4.50;3.25;;;;;26.56;47.01;101504.13;5071743;27;45302;-70
2021/08/09 11:12:10;;;;;;;;;2.00;2.00;;;;;26.58;47.91;101505.69;5076367;27;45453;-69
2021/08/09 11:17:31;;;;;;;;;4.00;2.25;;;;;26.47;48.41;101498.66;5071245;27;45476;-68
2021/08/09 11:20:23;;;;;;;;;2.50;2.50;;;;;26.46;47.62;101490.69;5070376;28;45592;-68
2021/08/09 11:23:04;;;;;;;;;3.00;1.50;;;;;26.34;47.66;101506.19;5056111;28;45450;-69
2021/08/09 11:25:47;;;;;;;;;1.25;1.25;;;;;26.13;46.91;101489.44;5070302;28;45612;-69
2021/08/09 11:28:16;;;;;;;;;3.00;2.50;;;;;26.00;47.98;101487.94;5083641;27;45458;-69
2021/08/09 11:30:48;;;;;;;;;3.25;3.25;;;;;26.07;47.90;101492.72;5072485;27;45462;-69